Time;durP1;ratioP1;P1;durP2;ratioP2;P2;SDS_P1;SDS_P2;PMS_P1;PMS_P2;Temp;Humidity;BMP_temperature;BMP_pressure;BME280_temperature;BME280_humidity;BME280_pressure;Samples;Min_cycle;Max_cycle;Signal;HPM_P1;HPM_P2
2021/06/29 00:00:02;;;;;;;16.08;5.88;;;;;;;27.86;55.69;100801.63;5071186;28;20052;-65
2021/06/29 00:02:30;;;;;;;14.80;6.90;;;;;;;27.83;55.97;100802.66;5070830;28;20128;-66
2021/06/29 00:04:58;;;;;;;12.70;6.35;;;;;;;27.79;55.89;100790.25;5071780;28;20048;-66
2021/06/29 00:07:25;;;;;;;10.10;4.95;;;;;;;27.75;55.73;100797.69;5071182;28;20438;-65
2021/06/29 00:09:53;;;;;;;12.23;5.40;;;;;;;27.77;55.96;100798.47;5079600;28;20404;-65
2021/06/29 00:12:20;;;;;;;14.80;5.18;;;;;;;27.79;56.06;100797.50;5090006;28;20448;-65
2021/06/29 00:14:48;;;;;;;16.08;5.05;;;;;;;27.78;55.93;100796.63;5089751;28;20043;-65
2021/06/29 00:17:17;;;;;;;14.43;5.45;;;;;;;27.79;55.89;100795.66;5084380;28;20409;-66
2021/06/29 00:19:45;;;;;;;13.73;5.15;;;;;;;27.80;55.77;100804.69;5073641;28;20505;-66
2021/06/29 00:22:12;;;;;;;13.57;5.32;;;;;;;27.78;56.18;100793.91;5090521;28;20036;-65
2021/06/29 00:24:40;;;;;;;17.02;5.32;;;;;;;27.76;56.04;100785.00;5089705;28;20044;-66
2021/06/29 00:27:08;;;;;;;12.90;5.35;;;;;;;27.78;56.14;100785.78;5073365;28;20135;-66
2021/06/29 00:29:36;;;;;;;11.93;5.05;;;;;;;27.77;56.43;100790.31;5090177;28;20036;-66
2021/06/29 00:32:05;;;;;;;12.82;5.20;;;;;;;27.75;56.35;100789.56;5089861;28;20048;-65
2021/06/29 00:34:34;;;;;;;15.70;6.32;;;;;;;27.73;56.53;100787.88;5089814;28;20393;-66
2021/06/29 00:37:02;;;;;;;11.80;5.20;;;;;;;27.72;56.75;100800.56;5090273;28;20047;-66
2021/06/29 00:39:30;;;;;;;12.63;5.22;;;;;;;27.68;56.54;100795.38;5089612;28;20036;-66
2021/06/29 00:41:57;;;;;;;12.68;5.22;;;;;;;27.69;56.29;100795.31;5089480;28;20040;-65
2021/06/29 00:44:25;;;;;;;13.73;5.68;;;;;;;27.71;55.73;100795.22;5089704;28;20033;-65
2021/06/29 00:46:54;;;;;;;16.70;5.63;;;;;;;27.68;55.71;100795.38;5089637;28;20064;-66
2021/06/29 00:49:21;;;;;;;17.42;5.22;;;;;;;27.65;55.50;100796.44;5083464;28;20139;-66
2021/06/29 00:51:51;;;;;;;11.40;5.13;;;;;;;27.67;55.80;100802.66;5084860;28;20041;-65
2021/06/29 00:54:19;;;;;;;13.88;5.72;;;;;;;27.65;55.87;100793.72;5089374;28;20040;-66
2021/06/29 00:56:48;;;;;;;12.88;5.25;;;;;;;27.67;55.88;100786.38;5090309;28;20493;-66
2021/06/29 00:59:15;;;;;;;14.48;6.53;;;;;;;27.65;56.01;100795.53;5086175;28;20052;-66
2021/06/29 01:01:43;;;;;;;18.80;5.38;;;;;;;27.61;55.77;100799.41;5089099;28;20124;-65
2021/06/29 01:04:10;;;;;;;13.13;4.43;;;;;;;27.58;55.83;100799.53;5088426;28;20489;-65
2021/06/29 01:06:39;;;;;;;12.70;5.60;;;;;;;27.56;55.94;100796.94;5089391;28;20052;-65
2021/06/29 01:09:08;;;;;;;12.90;5.25;;;;;;;27.57;55.71;100806.81;5089758;28;20050;-65
2021/06/29 01:11:35;;;;;;;11.57;4.75;;;;;;;27.53;55.77;100805.22;5089587;28;20067;-66
2021/06/29 01:14:11;;;;;;;12.52;5.43;;;;;;;27.54;55.77;100811.53;5088584;28;20040;-66
2021/06/29 01:16:38;;;;;;;13.32;5.10;;;;;;;27.47;55.62;100805.53;5075297;28;20044;-66
2021/06/29 01:19:06;;;;;;;12.98;4.80;;;;;;;27.46;55.65;100811.91;5071839;28;20043;-66
2021/06/29 01:21:38;;;;;;;12.88;4.88;;;;;;;27.44;55.61;100804.84;5088835;28;20561;-66
2021/06/29 01:24:09;;;;;;;11.40;4.97;;;;;;;27.46;55.94;100811.91;5089371;28;20039;-66
2021/06/29 01:26:40;;;;;;;11.65;5.13;;;;;;;27.44;55.74;100810.25;5089082;28;20060;-66
2021/06/29 01:29:08;;;;;;;10.38;5.18;;;;;;;27.45;56.05;100807.44;5089111;28;20103;-65
2021/06/29 01:31:36;;;;;;;11.10;4.72;;;;;;;27.47;55.89;100805.53;5072473;28;20429;-66
2021/06/29 01:34:05;;;;;;;11.05;4.63;;;;;;;27.51;55.58;100801.69;5088911;28;20066;-66
2021/06/29 01:36:37;;;;;;;12.60;4.68;;;;;;;27.52;55.56;100808.91;5089048;28;20178;-66
2021/06/29 01:39:08;;;;;;;15.85;5.15;;;;;;;27.50;55.45;100805.38;5088580;28;20047;-66
2021/06/29 01:41:36;;;;;;;12.35;4.80;;;;;;;27.49;55.75;100803.63;5088685;28;20115;-66
2021/06/29 01:44:08;;;;;;;11.30;5.05;;;;;;;27.48;55.88;100803.69;5088720;28;20044;-65
2021/06/29 01:46:39;;;;;;;10.88;4.80;;;;;;;27.46;56.00;100805.59;5071694;28;20036;-66
2021/06/29 01:49:06;;;;;;;11.35;4.85;;;;;;;27.44;55.90;100802.13;5088258;28;20052;-66
2021/06/29 01:51:35;;;;;;;16.25;5.15;;;;;;;27.44;55.88;100799.41;5088485;28;20036;-66
2021/06/29 01:54:02;;;;;;;12.85;5.45;;;;;;;27.43;55.67;100808.50;5089018;28;20074;-66
2021/06/29 01:56:32;;;;;;;13.65;5.70;;;;;;;27.41;55.88;100807.69;5088512;28;20046;-66
2021/06/29 01:59:03;;;;;;;12.35;5.10;;;;;;;27.40;56.08;100814.06;5087846;28;20086;-66
2021/06/29 02:01:31;;;;;;;14.05;4.60;;;;;;;27.36;56.33;100808.81;5082704;28;20123;-65
2021/06/29 02:03:58;;;;;;;9.32;5.30;;;;;;;27.37;56.92;100805.13;5085606;28;20033;-66
2021/06/29 02:06:26;;;;;;;12.60;4.93;;;;;;;27.37;57.21;100804.28;5088326;28;20034;-66
2021/06/29 02:08:54;;;;;;;13.05;5.13;;;;;;;27.40;57.35;100803.22;5088843;28;20036;-66
2021/06/29 02:11:22;;;;;;;13.18;5.97;;;;;;;27.35;57.59;100801.66;5087660;28;20040;-66
2021/06/29 02:13:50;;;;;;;15.25;6.00;;;;;;;27.37;57.36;100801.56;5088390;28;20046;-66
2021/06/29 02:16:17;;;;;;;16.52;5.50;;;;;;;27.32;57.66;100809.94;5087876;28;20123;-67
2021/06/29 02:18:44;;;;;;;13.25;5.60;;;;;;;27.32;57.44;100800.91;5088470;28;20040;-66
2021/06/29 02:21:12;;;;;;;13.05;5.30;;;;;;;27.30;57.46;100809.16;5088343;28;20040;-66
2021/06/29 02:23:40;;;;;;;17.33;5.03;;;;;;;27.31;57.24;100810.88;5088536;28;20059;-66
2021/06/29 02:26:09;;;;;;;10.73;4.93;;;;;;;27.30;57.41;100813.69;5088645;28;20066;-65
2021/06/29 02:28:37;;;;;;;11.60;4.75;;;;;;;27.30;57.29;100800.16;5086826;28;20127;-66
2021/06/29 02:31:05;;;;;;;13.77;5.53;;;;;;;27.31;57.50;100810.88;5084750;28;20097;-66
2021/06/29 02:33:33;;;;;;;9.68;5.15;;;;;;;27.29;57.76;100801.97;5088681;28;20036;-66
2021/06/29 02:36:01;;;;;;;15.20;5.22;;;;;;;27.29;58.18;100807.41;5088375;28;20135;-65
2021/06/29 02:38:28;;;;;;;13.07;5.07;;;;;;;27.33;57.77;100797.25;5071158;28;20037;-65
2021/06/29 02:40:56;;;;;;;13.93;5.30;;;;;;;27.32;58.23;100806.34;5068127;28;20170;-65
2021/06/29 02:43:24;;;;;;;12.43;5.53;;;;;;;27.29;57.97;100803.81;5086455;28;20056;-66
2021/06/29 02:45:52;;;;;;;15.40;5.32;;;;;;;27.28;57.99;100797.50;5087353;28;20458;-65
2021/06/29 02:48:19;;;;;;;12.20;4.65;;;;;;;27.25;58.15;100788.63;5088331;28;20055;-66
2021/06/29 02:50:47;;;;;;;10.10;5.35;;;;;;;27.25;58.23;100802.19;5088667;28;20032;-65
2021/06/29 02:53:14;;;;;;;12.45;5.18;;;;;;;27.23;58.30;100801.41;5085471;28;20040;-66
2021/06/29 02:55:42;;;;;;;11.18;5.10;;;;;;;27.21;58.70;100797.91;5088503;28;20123;-66
2021/06/29 02:58:10;;;;;;;12.80;5.53;;;;;;;27.22;58.86;100794.25;5088027;28;20036;-66
2021/06/29 03:00:39;;;;;;;12.95;5.07;;;;;;;27.18;58.91;100804.34;5087689;28;20127;-66
2021/06/29 03:03:07;;;;;;;16.73;5.65;;;;;;;27.18;59.03;100807.06;5088145;28;20501;-66
2021/06/29 03:05:35;;;;;;;12.52;5.28;;;;;;;27.17;59.16;100801.75;5088116;28;20043;-66
2021/06/29 03:08:02;;;;;;;15.95;5.32;;;;;;;27.13;59.74;100803.72;5086468;28;20036;-65
2021/06/29 03:10:30;;;;;;;14.25;5.25;;;;;;;27.18;59.68;100800.75;5087751;28;20414;-66
2021/06/29 03:12:57;;;;;;;11.63;5.57;;;;;;;27.19;59.74;100805.22;5087492;28;20044;-67
2021/06/29 03:15:26;;;;;;;10.48;5.80;;;;;;;27.19;59.69;100799.81;5088001;28;20036;-66
2021/06/29 03:17:55;;;;;;;11.50;4.85;;;;;;;27.20;59.92;100804.28;5087566;28;20040;-65
2021/06/29 03:20:22;;;;;;;11.35;6.25;;;;;;;27.22;59.62;100795.13;5088021;28;20036;-65
2021/06/29 03:22:50;;;;;;;10.48;4.82;;;;;;;27.33;59.69;100797.25;5087163;28;20101;-66
2021/06/29 03:25:17;;;;;;;13.13;5.22;;;;;;;27.42;59.58;100804.91;5088340;28;20040;-66
2021/06/29 03:27:45;;;;;;;10.95;4.53;;;;;;;27.49;59.57;100791.91;5089402;28;20127;-65
2021/06/29 03:30:14;;;;;;;12.98;5.05;;;;;;;27.57;59.34;100809.53;5091535;28;20047;-65
2021/06/29 03:32:41;;;;;;;11.25;4.40;;;;;;;27.62;59.48;100804.75;5091516;28;20033;-66
2021/06/29 03:35:11;;;;;;;15.02;4.80;;;;;;;27.75;59.16;100796.81;5091036;28;20456;-66
2021/06/29 03:37:39;;;;;;;11.80;4.32;;;;;;;27.86;58.87;100804.34;5090971;28;20055;-66
2021/06/29 03:40:08;;;;;;;11.88;5.20;;;;;;;27.97;58.42;100799.19;5091316;28;20051;-65
2021/06/29 03:42:35;;;;;;;10.55;4.65;;;;;;;28.04;58.21;100801.47;5090456;28;20424;-65
2021/06/29 03:45:03;;;;;;;15.57;4.88;;;;;;;28.14;58.07;100797.34;5091079;28;20048;-66
2021/06/29 03:47:30;;;;;;;16.45;5.63;;;;;;;28.25;57.70;100795.84;5082060;28;20039;-66
2021/06/29 03:50:00;;;;;;;11.98;4.97;;;;;;;28.33;57.68;100797.16;5071035;28;20036;-66
2021/06/29 03:52:29;;;;;;;11.23;4.25;;;;;;;28.43;57.12;100795.66;5079402;28;20032;-66
2021/06/29 03:54:57;;;;;;;12.40;4.55;;;;;;;28.55;57.00;100802.22;5090977;28;20040;-66
2021/06/29 03:57:24;;;;;;;11.43;4.28;;;;;;;28.66;56.53;100786.16;5090658;28;20043;-65
2021/06/29 03:59:54;;;;;;;12.60;4.68;;;;;;;28.75;56.34;100809.25;5090962;28;20048;-66
2021/06/29 04:02:22;;;;;;;10.00;4.30;;;;;;;28.90;56.26;100803.75;5089397;28;20051;-65
2021/06/29 04:04:50;;;;;;;9.20;4.13;;;;;;;29.04;55.92;100805.66;5090860;28;20493;-65
2021/06/29 04:07:18;;;;;;;13.45;4.22;;;;;;;29.18;55.45;100805.69;5091300;28;20043;-65
2021/06/29 04:09:47;;;;;;;13.45;4.85;;;;;;;29.36;55.04;100809.16;5090797;28;20508;-66
2021/06/29 04:12:15;;;;;;;9.70;3.88;;;;;;;29.46;54.64;100810.34;5090813;28;20052;-66
2021/06/29 04:14:43;;;;;;;9.65;4.07;;;;;;;29.61;54.12;100816.66;5090610;28;20044;-66
2021/06/29 04:17:11;;;;;;;10.98;3.78;;;;;;;29.73;53.90;100806.88;5088960;28;20040;-66
2021/06/29 04:19:39;;;;;;;13.15;4.65;;;;;;;29.83;53.42;100803.47;5089846;28;20039;-66
2021/06/29 04:22:07;;;;;;;13.32;4.20;;;;;;;29.93;52.90;100814.69;5090514;28;20123;-65
2021/06/29 04:24:35;;;;;;;16.27;4.32;;;;;;;30.05;52.91;100819.34;5089960;28;20029;-65
2021/06/29 04:27:06;;;;;;;10.98;4.10;;;;;;;30.20;52.26;100818.31;5069539;28;20497;-66
2021/06/29 04:29:33;;;;;;;10.30;4.05;;;;;;;30.33;51.96;100823.84;5069986;28;20512;-66
2021/06/29 04:32:01;;;;;;;10.57;3.80;;;;;;;30.47;51.30;100819.25;5089459;28;20063;-66
2021/06/29 04:34:28;;;;;;;10.00;3.42;;;;;;;30.54;50.77;100818.88;5072465;28;20043;-66
2021/06/29 04:36:56;;;;;;;9.52;3.72;;;;;;;30.67;50.51;100815.22;5088922;28;20035;-66
2021/06/29 04:39:23;;;;;;;12.63;3.85;;;;;;;30.84;50.01;100823.16;5089119;28;20044;-66
2021/06/29 04:41:50;;;;;;;9.88;3.70;;;;;;;31.00;49.33;100819.38;5090338;28;20050;-65
2021/06/29 04:44:19;;;;;;;8.43;3.42;;;;;;;31.22;48.89;100826.00;5090382;28;20036;-66
2021/06/29 04:46:49;;;;;;;9.77;3.78;;;;;;;31.52;48.19;100825.72;5089862;28;20041;-66
2021/06/29 04:49:19;;;;;;;9.10;3.42;;;;;;;31.81;47.47;100826.41;5086636;28;20036;-66
2021/06/29 04:51:46;;;;;;;10.23;3.50;;;;;;;32.03;46.66;100828.47;5089050;28;20117;-66
2021/06/29 04:54:14;;;;;;;9.65;3.30;;;;;;;32.30;46.40;100840.13;5090113;28;20036;-66
2021/06/29 04:56:41;;;;;;;10.02;3.85;;;;;;;32.49;45.29;100836.91;5089678;28;20051;-66
2021/06/29 04:59:09;;;;;;;7.80;3.08;;;;;;;32.67;45.12;100840.16;5088985;28;20405;-66
2021/06/29 05:01:38;;;;;;;12.52;3.53;;;;;;;32.91;44.84;100841.03;5089441;28;20062;-66
2021/06/29 05:04:06;;;;;;;10.88;4.03;;;;;;;33.16;44.22;100842.75;5089328;28;20048;-66
2021/06/29 05:06:33;;;;;;;10.38;3.60;;;;;;;33.42;43.59;100838.88;5084796;28;20044;-66
2021/06/29 05:09:00;;;;;;;10.68;3.53;;;;;;;33.57;42.94;100837.69;5076108;28;20042;-66
2021/06/29 05:11:28;;;;;;;8.63;3.15;;;;;;;33.68;42.52;100844.16;5089335;28;20040;-66
2021/06/29 05:13:55;;;;;;;11.63;3.65;;;;;;;33.78;41.99;100846.09;5088148;28;20046;-66
2021/06/29 05:16:23;;;;;;;8.27;3.38;;;;;;;33.81;41.52;100850.44;5089347;28;20056;-66
2021/06/29 05:18:52;;;;;;;9.43;3.38;;;;;;;33.95;41.63;100853.81;5089440;28;20054;-66
2021/06/29 05:21:19;;;;;;;8.95;3.92;;;;;;;34.20;40.94;100857.31;5089248;28;20139;-66
2021/06/29 05:23:47;;;;;;;11.05;3.40;;;;;;;34.40;40.56;100851.94;5085041;28;20036;-67
2021/06/29 05:26:14;;;;;;;8.40;3.70;;;;;;;34.66;40.13;100863.50;5077935;28;20039;-66
2021/06/29 05:28:42;;;;;;;12.63;4.18;;;;;;;35.03;39.38;100861.31;5089016;28;20036;-66
2021/06/29 05:31:09;;;;;;;7.78;3.70;;;;;;;35.38;38.76;100866.53;5088686;28;20036;-66
2021/06/29 05:33:36;;;;;;;11.13;4.30;;;;;;;35.44;38.44;100855.03;5086286;28;20028;-66
2021/06/29 05:36:06;;;;;;;7.30;2.95;;;;;;;35.61;37.91;100856.31;5069870;28;20089;-66
2021/06/29 05:38:34;;;;;;;9.90;2.92;;;;;;;35.82;37.71;100853.56;5088451;28;20039;-66
2021/06/29 05:41:02;;;;;;;8.85;3.17;;;;;;;35.97;37.38;100850.31;5080889;28;20039;-66
2021/06/29 05:43:29;;;;;;;13.77;4.20;;;;;;;36.24;37.09;100860.75;5073047;28;20036;-66
2021/06/29 05:45:56;;;;;;;10.85;3.85;;;;;;;36.28;36.47;100859.47;5089162;28;20131;-66
2021/06/29 05:48:28;;;;;;;9.70;3.10;;;;;;;36.36;36.72;100868.91;5088936;28;20046;-66
2021/06/29 05:50:55;;;;;;;6.65;3.25;;;;;;;36.54;36.52;100867.22;5086662;28;20044;-66
2021/06/29 05:53:24;;;;;;;8.40;3.40;;;;;;;36.56;36.60;100860.53;5088754;28;20036;-66
2021/06/29 05:55:51;;;;;;;8.77;3.08;;;;;;;36.48;36.82;100873.28;5088615;28;20060;-66
2021/06/29 05:58:19;;;;;;;8.55;3.20;;;;;;;36.55;36.92;100879.97;5079236;28;20515;-66
2021/06/29 06:00:46;;;;;;;10.25;3.60;;;;;;;36.52;36.87;100874.75;5084313;28;20048;-66
2021/06/29 06:03:15;;;;;;;8.73;3.40;;;;;;;36.47;37.31;100879.81;5086259;28;20048;-67
2021/06/29 06:05:43;;;;;;;10.82;3.47;;;;;;;36.52;36.98;100877.50;5085019;28;20048;-66
2021/06/29 06:08:11;;;;;;;9.45;3.80;;;;;;;36.57;37.14;100881.56;5084711;28;20051;-66
2021/06/29 06:10:41;;;;;;;9.07;3.85;;;;;;;36.53;36.99;100873.72;5087973;28;20070;-66
2021/06/29 06:13:08;;;;;;;8.75;3.40;;;;;;;36.50;37.35;100882.25;5088097;28;20036;-66
2021/06/29 06:15:36;;;;;;;10.85;3.63;;;;;;;36.66;37.07;100883.50;5088191;28;20048;-66
2021/06/29 06:18:06;;;;;;;9.38;3.22;;;;;;;36.57;36.88;100865.03;5088278;28;20102;-66
2021/06/29 06:20:34;;;;;;;10.93;3.35;;;;;;;36.68;36.78;100876.00;5073598;28;20040;-66
2021/06/29 06:23:01;;;;;;;9.88;3.60;;;;;;;36.77;36.71;100868.75;5050591;28;20047;-66
2021/06/29 06:25:29;;;;;;;8.38;3.30;;;;;;;36.61;36.29;100866.53;5084268;28;20086;-66
2021/06/29 06:27:59;;;;;;;7.93;3.15;;;;;;;36.64;36.20;100870.84;5085843;28;20386;-66
2021/06/29 06:30:26;;;;;;;9.35;3.47;;;;;;;36.78;36.20;100865.00;5087614;28;20046;-66
2021/06/29 06:32:54;;;;;;;9.73;3.70;;;;;;;36.80;36.23;100867.59;5070329;28;20050;-67
2021/06/29 06:35:21;;;;;;;9.10;3.17;;;;;;;36.82;36.15;100860.09;5087191;28;20058;-66
2021/06/29 06:37:49;;;;;;;9.07;3.58;;;;;;;36.89;36.10;100862.09;5088701;28;20561;-66
2021/06/29 06:40:16;;;;;;;10.68;3.80;;;;;;;36.97;35.97;100878.78;5088348;28;20055;-66
2021/06/29 06:42:46;;;;;;;7.15;2.95;;;;;;;37.07;35.32;100874.16;5088411;28;20503;-66
2021/06/29 06:45:19;;;;;;;7.47;3.72;;;;;;;36.90;35.47;100869.34;5087276;28;20493;-66
2021/06/29 06:47:47;;;;;;;8.80;3.08;;;;;;;36.85;35.38;100888.19;5088790;28;20060;-66
2021/06/29 06:50:14;;;;;;;11.05;3.78;;;;;;;36.94;35.34;100880.97;5087807;28;20119;-66
2021/06/29 06:52:41;;;;;;;7.43;2.95;;;;;;;36.81;35.41;100880.38;5088346;28;20047;-66
2021/06/29 06:55:10;;;;;;;10.35;3.40;;;;;;;36.89;35.53;100878.63;5087975;28;20075;-66
2021/06/29 06:57:37;;;;;;;7.15;3.13;;;;;;;37.07;35.08;100884.31;5086272;28;20032;-66
2021/06/29 07:00:06;;;;;;;13.18;4.55;;;;;;;37.13;34.98;100883.75;5087843;28;20127;-66
2021/06/29 07:02:37;;;;;;;6.75;3.17;;;;;;;37.07;35.11;100885.19;5089764;28;20052;-66
2021/06/29 07:05:05;;;;;;;7.88;3.80;;;;;;;37.18;34.59;100884.19;5090391;28;20044;-66
2021/06/29 07:07:34;;;;;;;7.20;3.20;;;;;;;37.14;35.20;100896.53;5091559;28;20072;-66
2021/06/29 07:10:01;;;;;;;8.93;3.90;;;;;;;37.15;35.16;100897.41;5085461;28;20124;-66
2021/06/29 07:12:29;;;;;;;9.90;5.20;;;;;;;37.04;35.27;100879.94;5081182;28;20048;-66
2021/06/29 07:14:57;;;;;;;11.88;3.97;;;;;;;36.86;34.94;100886.31;5086896;28;20048;-66
2021/06/29 07:17:25;;;;;;;10.48;3.90;;;;;;;36.93;35.15;100890.22;5075725;28;20128;-66
2021/06/29 07:19:53;;;;;;;7.30;3.42;;;;;;;37.16;35.18;100866.06;5071152;28;20132;-66
2021/06/29 07:22:21;;;;;;;10.65;3.50;;;;;;;37.27;34.60;100877.81;5091863;28;20079;-66
2021/06/29 07:24:49;;;;;;;7.68;3.22;;;;;;;37.37;34.62;100886.06;5082721;28;20040;-66
2021/06/29 07:27:16;;;;;;;10.25;3.47;;;;;;;37.52;34.58;100887.38;5076754;28;20123;-66
2021/06/29 07:29:44;;;;;;;6.40;3.72;;;;;;;37.54;33.87;100877.09;5078037;28;20041;-66
2021/06/29 07:32:11;;;;;;;9.48;3.50;;;;;;;37.43;33.62;100882.72;5079809;28;20086;-66
2021/06/29 07:34:39;;;;;;;12.43;3.50;;;;;;;37.44;34.19;100885.34;5090953;28;20063;-66
2021/06/29 07:37:08;;;;;;;7.72;3.00;;;;;;;37.53;34.21;100872.59;5088240;28;20102;-66
2021/06/29 07:39:35;;;;;;;6.22;3.33;;;;;;;37.57;33.48;100882.31;5089325;28;20048;-67
2021/06/29 07:42:03;;;;;;;9.60;3.45;;;;;;;37.62;33.66;100882.75;5091607;28;20497;-66
2021/06/29 07:44:31;;;;;;;8.73;3.38;;;;;;;37.63;33.98;100876.22;5091506;28;20044;-66
2021/06/29 07:46:59;;;;;;;9.93;3.05;;;;;;;37.67;33.67;100872.16;5090273;28;20066;-66
2021/06/29 07:49:26;;;;;;;7.90;3.83;;;;;;;37.66;34.34;100870.41;5091248;28;20047;-66
2021/06/29 07:51:54;;;;;;;5.80;3.80;;;;;;;37.54;34.17;100885.34;5091145;28;20047;-66
2021/06/29 07:54:23;;;;;;;8.10;3.35;;;;;;;37.46;34.03;100872.31;5091091;28;20044;-66
2021/06/29 07:56:50;;;;;;;9.93;3.40;;;;;;;37.57;33.87;100881.41;5091056;28;20510;-66
2021/06/29 07:59:19;;;;;;;7.88;3.67;;;;;;;37.67;33.89;100877.69;5087380;28;20046;-66
2021/06/29 08:01:46;;;;;;;7.85;3.25;;;;;;;37.93;33.13;100874.28;5082677;28;20048;-65
2021/06/29 08:04:14;;;;;;;11.40;3.13;;;;;;;38.01;33.15;100883.50;5070853;28;20037;-66
2021/06/29 08:06:42;;;;;;;9.65;3.10;;;;;;;38.06;32.80;100886.75;5070588;28;20052;-66
2021/06/29 08:09:09;;;;;;;7.45;3.40;;;;;;;38.03;32.83;100883.41;5070421;28;20127;-66
2021/06/29 08:11:38;;;;;;;8.20;3.45;;;;;;;38.05;32.11;100884.13;5076277;28;20047;-66
2021/06/29 08:14:06;;;;;;;6.93;3.20;;;;;;;37.88;32.35;100877.47;5089271;28;20048;-65
2021/06/29 08:16:33;;;;;;;9.10;3.72;;;;;;;37.82;32.06;100881.69;5090689;28;20038;-66
2021/06/29 08:19:00;;;;;;;9.82;3.45;;;;;;;37.94;32.18;100887.91;5090947;28;20062;-66
2021/06/29 08:21:28;;;;;;;8.68;3.70;;;;;;;38.01;31.98;100872.47;5089706;28;20590;-66
2021/06/29 08:23:55;;;;;;;10.68;3.90;;;;;;;37.83;31.75;100869.66;5090644;28;20048;-66
2021/06/29 08:26:24;;;;;;;6.38;3.47;;;;;;;37.89;32.19;100881.97;5090666;28;20573;-66
2021/06/29 08:28:53;;;;;;;9.30;3.53;;;;;;;37.94;32.33;100865.00;5090000;28;20123;-66
2021/06/29 08:31:21;;;;;;;9.40;3.70;;;;;;;37.93;32.49;100863.25;5090730;28;20402;-66
2021/06/29 08:33:49;;;;;;;10.45;3.75;;;;;;;37.90;32.88;100864.41;5079851;28;20401;-66
2021/06/29 08:36:17;;;;;;;9.32;3.70;;;;;;;37.75;32.76;100872.25;5074527;28;20090;-66
2021/06/29 08:38:45;;;;;;;9.27;3.20;;;;;;;37.71;32.85;100868.06;5090422;28;20048;-67
2021/06/29 08:41:13;;;;;;;10.95;3.78;;;;;;;37.83;32.82;100874.28;5090059;28;20123;-66
2021/06/29 08:43:42;;;;;;;9.63;3.78;;;;;;;37.83;32.62;100868.78;5089956;28;20056;-66
2021/06/29 08:46:11;;;;;;;8.10;3.13;;;;;;;37.85;32.98;100873.13;5090072;28;20133;-66
2021/06/29 08:48:39;;;;;;;11.13;4.03;;;;;;;38.13;33.41;100873.22;5089978;28;20043;-66
2021/06/29 08:51:07;;;;;;;12.55;3.80;;;;;;;38.24;32.37;100873.88;5077489;28;20590;-66
2021/06/29 08:53:36;;;;;;;10.48;3.42;;;;;;;38.28;31.90;100869.78;5069797;28;20402;-66
2021/06/29 08:56:05;;;;;;;8.48;3.80;;;;;;;38.36;31.93;100877.31;5069749;28;20049;-66
2021/06/29 08:58:33;;;;;;;11.32;4.18;;;;;;;38.14;31.83;100872.19;5069617;28;20044;-65
2021/06/29 09:01:01;;;;;;;7.78;3.33;;;;;;;38.17;31.66;100871.88;5069639;28;20048;-66
2021/06/29 09:03:31;;;;;;;10.85;3.92;;;;;;;38.26;31.08;100868.22;5069313;28;20498;-66
2021/06/29 09:05:58;;;;;;;8.27;3.58;;;;;;;38.14;32.05;100881.31;5079197;28;20048;-65
2021/06/29 09:08:26;;;;;;;8.07;4.00;;;;;;;38.34;32.16;100870.19;5089711;28;20108;-66
2021/06/29 09:11:13;;;;;;;8.50;3.67;;;;;;;38.42;31.75;100876.69;5089082;28;20115;-66
2021/06/29 09:13:42;;;;;;;7.70;3.70;;;;;;;38.46;31.71;100880.91;5075135;28;20036;-66
2021/06/29 09:16:10;;;;;;;8.25;3.80;;;;;;;38.37;31.91;100868.03;5089667;28;20047;-66
2021/06/29 09:18:41;;;;;;;8.10;3.50;;;;;;;38.54;32.01;100882.91;5089193;28;20384;-66
2021/06/29 09:21:09;;;;;;;8.23;3.65;;;;;;;38.63;31.85;100884.75;5088433;28;20117;-66
2021/06/29 09:23:39;;;;;;;9.38;3.78;;;;;;;38.39;32.21;100871.50;5088403;28;20386;-66
2021/06/29 09:26:10;;;;;;;6.15;3.72;;;;;;;38.24;32.18;100879.41;5086326;28;20032;-66
2021/06/29 09:28:39;;;;;;;10.77;4.00;;;;;;;38.21;32.67;100876.06;5089244;28;20090;-66
2021/06/29 09:31:08;;;;;;;9.07;3.67;;;;;;;38.19;32.37;100867.09;5088984;28;20048;-66
2021/06/29 09:33:39;;;;;;;11.88;4.28;;;;;;;38.04;33.10;100887.91;5084807;28;20049;-66
2021/06/29 09:36:09;;;;;;;15.55;4.60;;;;;;;38.18;32.91;100882.78;5076169;28;20048;-66
2021/06/29 09:38:38;;;;;;;11.55;4.15;;;;;;;38.39;32.63;100892.72;5085606;28;20036;-65
2021/06/29 09:41:07;;;;;;;8.93;4.00;;;;;;;38.47;32.85;100884.50;5086983;28;20032;-65
2021/06/29 09:43:37;;;;;;;11.15;3.75;;;;;;;38.51;32.14;100881.34;5086803;28;20708;-66
2021/06/29 09:46:08;;;;;;;7.85;3.67;;;;;;;38.38;31.82;100879.94;5079623;28;20063;-66
2021/06/29 09:48:55;;;;;;;6.65;3.80;;;;;;;38.31;31.76;100868.63;5072650;28;20151;-66
2021/06/29 09:51:29;;;;;;;7.70;3.58;;;;;;;38.13;31.32;100875.97;5076131;28;20076;-66
2021/06/29 09:53:58;;;;;;;8.77;3.63;;;;;;;38.06;31.34;100870.19;5076313;28;20047;-65
2021/06/29 09:56:30;;;;;;;8.20;3.78;;;;;;;37.92;31.70;100878.91;5079468;28;20177;-65
2021/06/29 09:58:59;;;;;;;9.27;3.80;;;;;;;37.96;32.27;100882.22;5080565;28;20127;-66
2021/06/29 10:01:29;;;;;;;9.63;4.00;;;;;;;38.13;32.33;100898.03;5076401;28;20111;-65
2021/06/29 10:03:59;;;;;;;8.63;3.55;;;;;;;38.13;32.55;100887.88;5072265;28;20044;-65
2021/06/29 10:06:29;;;;;;;10.80;3.88;;;;;;;38.14;32.56;100883.22;5068691;28;20379;-65
2021/06/29 10:09:05;;;;;;;7.43;3.42;;;;;;;38.15;32.07;100891.34;5085024;28;20079;-65
2021/06/29 10:11:34;;;;;;;9.25;3.70;;;;;;;38.15;31.38;100884.94;5080276;28;20044;-65
2021/06/29 10:14:05;;;;;;;9.07;3.67;;;;;;;37.94;32.49;100885.16;5077499;28;20040;-65
2021/06/29 10:16:34;;;;;;;7.32;3.85;;;;;;;37.87;32.75;100878.50;5082441;28;20040;-66
2021/06/29 10:19:16;;;;;;;8.68;3.78;;;;;;;37.85;33.11;100878.66;5078200;28;20068;-66
2021/06/29 10:21:49;;;;;;;8.38;3.90;;;;;;;37.83;33.10;100883.44;5072892;28;20104;-65
2021/06/29 10:24:26;;;;;;;10.60;3.40;;;;;;;37.70;33.27;100868.22;5071005;28;20514;-65
2021/06/29 10:26:57;;;;;;;11.82;3.85;;;;;;;37.61;33.79;100875.50;5072899;28;20045;-66
2021/06/29 10:29:27;;;;;;;12.27;3.70;;;;;;;37.49;33.50;100887.66;5086834;28;20043;-65
2021/06/29 10:31:58;;;;;;;9.43;4.18;;;;;;;37.30;34.41;100877.53;5077774;28;20517;-66
2021/06/29 10:34:28;;;;;;;7.65;3.72;;;;;;;37.27;35.05;100876.97;5071007;28;20047;-65
2021/06/29 10:36:58;;;;;;;10.70;4.18;;;;;;;37.23;35.56;100864.47;5077980;28;20059;-65
2021/06/29 10:39:28;;;;;;;9.95;4.60;;;;;;;37.18;35.41;100872.31;5081901;28;20139;-65
2021/06/29 10:42:03;;;;;;;16.58;4.38;;;;;;;37.23;35.42;100870.84;5080766;28;20653;-65
2021/06/29 10:44:38;;;;;;;10.50;4.30;;;;;;;37.25;35.36;100878.97;5083332;28;20036;-66
2021/06/29 10:47:21;;;;;;;9.38;4.30;;;;;;;37.36;34.97;100873.31;5092288;28;20115;-66
2021/06/29 10:49:51;;;;;;;8.93;4.25;;;;;;;37.48;34.53;100884.03;5092281;28;20168;-66
2021/06/29 10:52:39;;;;;;;9.27;3.80;;;;;;;37.54;34.90;100895.50;5080216;28;20048;-66
2021/06/29 10:55:23;;;;;;;9.55;4.60;;;;;;;37.47;34.74;100868.53;5088683;28;20417;-65
2021/06/29 10:57:51;;;;;;;;;;;;;;;37.28;34.91;100867.69;5088341;28;20040;-66
2021/06/29 11:00:31;;;;;;;9.07;4.05;;;;;;;37.40;35.05;100863.75;5091526;28;19927;-66
2021/06/29 11:03:04;;;;;;;8.80;4.78;;;;;;;37.61;34.39;100853.47;5089810;28;20097;-66
2021/06/29 11:05:36;;;;;;;8.95;4.10;;;;;;;37.64;33.25;100858.66;5091430;28;20123;-66
2021/06/29 11:08:14;;;;;;;11.70;4.55;;;;;;;37.69;32.90;100852.69;5091259;28;20564;-66
2021/06/29 11:10:44;;;;;;;11.07;4.13;;;;;;;37.82;33.12;100865.13;5079999;28;20041;-67
2021/06/29 11:13:12;;;;;;;10.10;4.40;;;;;;;37.77;33.01;100861.09;5091686;28;20679;-67
2021/06/29 11:15:46;;;;;;;7.75;4.00;;;;;;;37.97;32.03;100859.16;5090163;28;20048;-66
2021/06/29 11:18:15;;;;;;;11.10;4.32;;;;;;;38.14;32.55;100850.97;5064158;28;20076;-65
2021/06/29 11:20:45;;;;;;;10.07;4.38;;;;;;;38.33;32.49;100863.84;5091882;28;20396;-66
2021/06/29 11:23:19;;;;;;;11.98;4.38;;;;;;;38.22;32.82;100852.97;5078838;28;20043;-67
2021/06/29 11:25:50;;;;;;;9.52;4.00;;;;;;;38.27;32.83;100854.25;5079366;28;20032;-66
2021/06/29 11:28:24;;;;;;;10.57;4.55;;;;;;;38.35;32.57;100856.25;5091565;28;20094;-67